createdAt,value
2024-03-02T00:00:43.582Z,9.10
2024-03-02T00:01:43.577Z,9.00
2024-03-02T00:02:43.521Z,10.00
2024-03-02T00:03:43.546Z,7.80
2024-03-02T00:04:43.489Z,10.70
2024-03-02T00:05:43.494Z,8.10
2024-03-02T00:06:43.484Z,9.90
2024-03-02T00:07:43.469Z,10.70
2024-03-02T00:08:43.448Z,8.60
2024-03-02T00:09:43.445Z,9.20
2024-03-02T00:10:43.442Z,9.10
2024-03-02T00:11:43.420Z,8.30
2024-03-02T00:12:43.495Z,11.10
2024-03-02T00:13:43.392Z,8.60
2024-03-02T00:14:43.412Z,10.30
2024-03-02T00:15:43.440Z,13.60
2024-03-02T00:16:43.366Z,11.60
2024-03-02T00:17:43.423Z,11.60
2024-03-02T00:18:43.371Z,11.30
2024-03-02T00:19:43.335Z,9.70
2024-03-02T00:20:43.297Z,9.50
2024-03-02T00:21:43.347Z,8.50
2024-03-02T00:22:43.319Z,9.80
2024-03-02T00:23:43.290Z,9.50
2024-03-02T00:24:43.292Z,8.90
2024-03-02T00:25:43.270Z,7.70
2024-03-02T00:26:43.324Z,10.60
2024-03-02T00:27:43.313Z,7.70
2024-03-02T00:28:43.212Z,9.20
2024-03-02T00:29:43.403Z,11.90
2024-03-02T00:30:43.236Z,8.40
2024-03-02T00:31:43.249Z,9.70
2024-03-02T00:32:43.208Z,9.90
2024-03-02T00:33:43.217Z,9.90
2024-03-02T00:34:43.152Z,8.80
2024-03-02T00:35:43.151Z,9.70
2024-03-02T00:36:43.185Z,9.90
2024-03-02T00:37:43.136Z,9.90
2024-03-02T00:38:43.238Z,9.90
2024-03-02T00:39:43.131Z,9.60
2024-03-02T00:40:43.101Z,8.20
2024-03-02T00:41:43.142Z,11.30
2024-03-02T00:42:43.096Z,9.90
2024-03-02T00:43:45.965Z,7.50
2024-03-02T00:44:43.053Z,8.00
2024-03-02T00:45:43.128Z,8.80
2024-03-02T00:46:43.035Z,9.10
2024-03-02T00:47:43.027Z,8.00
2024-03-02T00:48:43.084Z,8.60
2024-03-02T00:49:43.021Z,9.20
2024-03-02T00:50:42.976Z,8.30
2024-03-02T00:51:43.028Z,8.40
2024-03-02T00:52:42.949Z,8.30
2024-03-02T00:53:42.965Z,9.00
2024-03-02T00:54:43.038Z,7.10
2024-03-02T00:55:43.026Z,8.50
2024-03-02T00:56:43.074Z,7.80
2024-03-02T00:57:42.927Z,7.50
2024-03-02T00:58:42.919Z,7.10
2024-03-02T00:59:42.898Z,7.80
2024-03-02T01:00:42.991Z,6.90
2024-03-02T01:01:42.967Z,7.60
2024-03-02T01:02:42.841Z,7.50
2024-03-02T01:03:42.900Z,7.70
2024-03-02T01:04:42.996Z,7.20
2024-03-02T01:05:42.861Z,9.80
2024-03-02T01:06:42.819Z,9.70
2024-03-02T01:07:44.345Z,9.60
2024-03-02T01:08:44.036Z,8.20
2024-03-02T01:09:42.946Z,8.30
2024-03-02T01:10:42.798Z,7.90
2024-03-02T01:11:42.771Z,7.00
2024-03-02T01:12:42.819Z,8.40
2024-03-02T01:13:42.732Z,8.20
2024-03-02T01:14:42.760Z,9.60
2024-03-02T01:15:42.764Z,8.70
2024-03-02T01:16:42.699Z,9.20
2024-03-02T01:17:42.705Z,9.10
2024-03-02T01:18:42.743Z,10.00
2024-03-02T01:19:42.828Z,7.40
2024-03-02T01:20:42.704Z,6.90
2024-03-02T01:21:42.665Z,7.30
2024-03-02T01:22:42.632Z,8.70
2024-03-02T01:23:42.695Z,8.30
2024-03-02T01:24:42.624Z,7.30
2024-03-02T01:25:42.593Z,8.50
2024-03-02T01:26:42.638Z,8.60
2024-03-02T01:27:42.599Z,9.80
2024-03-02T01:28:42.599Z,10.70
2024-03-02T01:29:42.596Z,10.50
2024-03-02T01:30:42.595Z,9.80
2024-03-02T01:31:42.533Z,9.50
2024-03-02T01:32:42.579Z,12.50
2024-03-02T01:33:42.658Z,11.10
2024-03-02T01:34:42.514Z,9.00
2024-03-02T01:35:42.550Z,9.30
2024-03-02T01:36:42.510Z,11.70
2024-03-02T01:37:42.562Z,10.60
2024-03-02T01:38:42.459Z,9.30
2024-03-02T01:39:42.497Z,8.50
2024-03-02T01:40:42.441Z,9.90
2024-03-02T01:41:42.425Z,8.50
2024-03-02T01:42:42.456Z,9.00
2024-03-02T01:43:42.464Z,7.40
2024-03-02T01:44:42.418Z,7.30
2024-03-02T01:45:42.450Z,9.20
2024-03-02T01:46:42.607Z,9.20
2024-03-02T01:47:42.439Z,7.60
2024-03-02T01:48:42.357Z,9.00
2024-03-02T01:49:42.397Z,6.80
2024-03-02T01:50:42.321Z,9.30
2024-03-02T01:51:42.350Z,8.50
2024-03-02T01:52:42.309Z,7.80
2024-03-02T01:53:42.300Z,9.50
2024-03-02T01:54:42.285Z,8.60
2024-03-02T01:55:42.287Z,7.90
2024-03-02T01:56:42.308Z,7.80
2024-03-02T01:57:42.325Z,7.50
2024-03-02T01:58:42.256Z,7.30
2024-03-02T01:59:42.229Z,7.10
2024-03-02T02:00:42.371Z,9.40
2024-03-02T02:01:42.269Z,8.10
2024-03-02T02:02:42.213Z,7.80
2024-03-02T02:03:42.238Z,8.70
2024-03-02T02:04:42.194Z,8.40
2024-03-02T02:05:42.156Z,8.20
2024-03-02T02:06:42.187Z,8.30
2024-03-02T02:07:42.143Z,7.50
2024-03-02T02:08:42.179Z,7.60
2024-03-02T02:09:43.110Z,7.90
2024-03-02T02:10:42.125Z,7.30
2024-03-02T02:11:42.125Z,8.40
2024-03-02T02:12:42.202Z,6.00
2024-03-02T02:13:42.087Z,8.10
2024-03-02T02:14:42.056Z,7.90
2024-03-02T02:15:42.082Z,7.20
2024-03-02T02:16:42.071Z,6.90
2024-03-02T02:17:42.066Z,6.60
2024-03-02T02:18:42.064Z,7.00
2024-03-02T02:19:42.147Z,7.20
2024-03-02T02:20:42.004Z,6.00
2024-03-02T02:21:42.048Z,7.20
2024-03-02T02:22:41.976Z,6.40
2024-03-02T02:23:41.950Z,6.40
2024-03-02T02:24:42.034Z,6.50
2024-03-02T02:25:41.952Z,6.40
2024-03-02T02:26:41.941Z,6.80
2024-03-02T02:27:41.949Z,6.50
2024-03-02T02:28:41.902Z,6.90
2024-03-02T02:29:41.891Z,6.60
2024-03-02T02:30:41.943Z,6.90
2024-03-02T02:31:41.880Z,7.00
2024-03-02T02:32:41.888Z,8.20
2024-03-02T02:33:41.868Z,6.40
2024-03-02T02:34:41.864Z,7.90
2024-03-02T02:35:41.840Z,8.30
2024-03-02T02:36:42.032Z,5.80
2024-03-02T02:37:41.814Z,8.10
2024-03-02T02:38:41.795Z,7.00
2024-03-02T02:39:41.910Z,5.50
2024-03-02T02:40:41.791Z,6.60
2024-03-02T02:41:41.751Z,8.30
2024-03-02T02:42:41.785Z,6.90
2024-03-02T02:43:41.730Z,6.20
2024-03-02T02:44:41.751Z,5.80
2024-03-02T02:45:41.847Z,6.30
2024-03-02T02:46:41.758Z,6.70
2024-03-02T02:47:41.738Z,5.90
2024-03-02T02:48:41.750Z,6.00
2024-03-02T02:49:41.680Z,5.90
2024-03-02T02:50:41.656Z,8.40
2024-03-02T02:51:41.733Z,6.80
2024-03-02T02:52:42.046Z,7.30
2024-03-02T02:53:41.990Z,6.60
2024-03-02T02:54:41.668Z,5.10
2024-03-02T02:55:41.824Z,6.60
2024-03-02T02:56:41.601Z,6.60
2024-03-02T02:57:42.228Z,7.80
2024-03-02T02:58:41.576Z,6.60
2024-03-02T02:59:41.660Z,6.80
2024-03-02T03:00:41.651Z,7.00
2024-03-02T03:01:41.653Z,6.80
2024-03-02T03:02:41.533Z,5.60
2024-03-02T03:03:41.549Z,7.50
2024-03-02T03:04:41.556Z,6.00
2024-03-02T03:05:41.499Z,6.70
2024-03-02T03:06:41.517Z,7.00
2024-03-02T03:07:42.372Z,7.20
2024-03-02T03:08:41.488Z,7.70
2024-03-02T03:09:41.498Z,6.10
2024-03-02T03:10:41.460Z,6.00
2024-03-02T03:11:44.050Z,6.20
2024-03-02T03:12:41.506Z,9.30
2024-03-02T03:13:41.431Z,8.00
2024-03-02T03:14:41.399Z,7.70
2024-03-02T03:15:41.438Z,5.80
2024-03-02T03:16:41.383Z,7.30
2024-03-02T03:17:41.496Z,6.00
2024-03-02T03:18:41.409Z,6.50
2024-03-02T03:19:41.395Z,10.00
2024-03-02T03:20:41.337Z,7.30
2024-03-02T03:21:41.354Z,9.00
2024-03-02T03:22:41.375Z,7.40
2024-03-02T03:23:41.298Z,7.60
2024-03-02T03:24:41.349Z,6.80
2024-03-02T03:25:41.296Z,8.40
2024-03-02T03:26:41.299Z,6.70
2024-03-02T03:27:41.319Z,8.50
2024-03-02T03:28:41.236Z,7.50
2024-03-02T03:29:41.241Z,7.30
2024-03-02T03:30:41.251Z,8.80
2024-03-02T03:31:41.227Z,7.30
2024-03-02T03:32:41.238Z,8.50
2024-03-02T03:33:41.232Z,7.20
2024-03-02T03:34:41.211Z,6.90
2024-03-02T03:35:41.195Z,6.40
2024-03-02T03:36:41.201Z,6.90
2024-03-02T03:37:42.079Z,7.30
2024-03-02T03:38:41.136Z,5.90
2024-03-02T03:39:41.185Z,6.60
2024-03-02T03:40:41.118Z,5.80
2024-03-02T03:41:41.123Z,6.20
2024-03-02T03:42:41.220Z,6.30
2024-03-02T03:43:41.087Z,7.10
2024-03-02T03:44:41.067Z,6.50
2024-03-02T03:45:41.210Z,6.50
2024-03-02T03:46:41.104Z,7.00
2024-03-02T03:47:41.076Z,6.10
2024-03-02T03:48:41.035Z,5.70
2024-03-02T03:49:41.030Z,6.60
2024-03-02T03:50:41.220Z,7.30
2024-03-02T03:51:41.080Z,6.60
2024-03-02T03:52:41.005Z,6.40
2024-03-02T03:53:41.014Z,7.30
2024-03-02T03:54:41.004Z,7.20
2024-03-02T03:55:40.977Z,5.80
2024-03-02T03:56:40.948Z,6.70
2024-03-02T03:57:41.076Z,8.90
2024-03-02T03:58:40.932Z,6.50
2024-03-02T03:59:40.916Z,6.90
2024-03-02T04:00:41.100Z,6.90
2024-03-02T04:01:40.977Z,6.90
2024-03-02T04:02:40.946Z,8.40
2024-03-02T04:03:40.891Z,7.60
2024-03-02T04:04:40.882Z,7.90
2024-03-02T04:05:40.898Z,9.10
2024-03-02T04:06:40.854Z,7.30
2024-03-02T04:07:40.821Z,8.20
2024-03-02T04:08:42.655Z,8.80
2024-03-02T04:09:40.889Z,9.00
2024-03-02T04:10:40.849Z,10.70
2024-03-02T04:11:40.787Z,8.10
2024-03-02T04:12:40.836Z,8.50
2024-03-02T04:13:40.773Z,7.50
2024-03-02T04:14:40.755Z,7.40
2024-03-02T04:15:40.844Z,6.40
2024-03-02T04:16:40.726Z,7.90
2024-03-02T04:17:40.761Z,8.30
2024-03-02T04:18:40.822Z,10.00
2024-03-02T04:19:40.781Z,7.40
2024-03-02T04:20:41.604Z,8.80
2024-03-02T04:21:40.708Z,7.90
2024-03-02T04:22:40.661Z,8.90
2024-03-02T04:23:40.666Z,7.40
2024-03-02T04:24:40.713Z,7.60
2024-03-02T04:25:40.677Z,8.70
2024-03-02T04:26:40.628Z,7.00
2024-03-02T04:27:40.873Z,8.30
2024-03-02T04:28:40.693Z,8.40
2024-03-02T04:29:40.623Z,10.30
2024-03-02T04:30:40.625Z,9.30
2024-03-02T04:31:40.605Z,9.20
2024-03-02T04:32:40.618Z,10.30
2024-03-02T04:33:40.639Z,8.70
2024-03-02T04:34:40.510Z,8.80
2024-03-02T04:35:40.584Z,8.60
2024-03-02T04:36:40.641Z,8.70
2024-03-02T04:37:40.645Z,7.90
2024-03-02T04:38:40.601Z,10.30
2024-03-02T04:39:40.523Z,9.80
2024-03-02T04:40:43.178Z,9.00
2024-03-02T04:41:40.579Z,10.30
2024-03-02T04:42:40.462Z,9.30
2024-03-02T04:43:40.482Z,10.50
2024-03-02T04:44:40.408Z,9.40
2024-03-02T04:45:40.499Z,10.40
2024-03-02T04:46:40.431Z,10.30
2024-03-02T04:47:40.466Z,12.70
2024-03-02T04:48:40.458Z,11.00
2024-03-02T04:49:40.418Z,10.50
2024-03-02T04:50:40.354Z,9.90
2024-03-02T04:51:40.384Z,11.60
2024-03-02T04:52:40.342Z,9.10
2024-03-02T04:53:40.338Z,10.80
2024-03-02T04:54:40.327Z,8.60
2024-03-02T04:55:40.303Z,9.20
2024-03-02T04:56:40.299Z,12.90
2024-03-02T04:57:40.353Z,11.00
2024-03-02T04:58:40.255Z,9.60
2024-03-02T04:59:41.076Z,9.50
2024-03-02T05:00:40.828Z,9.50
2024-03-02T05:01:43.012Z,9.30
2024-03-02T05:02:40.609Z,10.90
2024-03-02T05:03:40.497Z,10.40
2024-03-02T05:04:40.472Z,9.90
2024-03-02T05:05:40.385Z,13.50
2024-03-02T05:06:40.441Z,10.30
2024-03-02T05:07:40.653Z,10.30
2024-03-02T05:08:40.618Z,10.40
2024-03-02T05:09:40.205Z,10.00
2024-03-02T05:10:40.221Z,11.80
2024-03-02T05:11:40.133Z,9.90
2024-03-02T05:12:40.139Z,10.60
2024-03-02T05:13:40.285Z,10.30
2024-03-02T05:14:40.116Z,9.40
2024-03-02T05:15:40.172Z,9.70
2024-03-02T05:16:40.105Z,9.50
2024-03-02T05:17:40.073Z,9.80
2024-03-02T05:18:40.119Z,10.20
2024-03-02T05:19:40.045Z,11.10
2024-03-02T05:20:40.067Z,10.70
2024-03-02T05:21:40.037Z,10.60
2024-03-02T05:22:40.047Z,9.60
2024-03-02T05:23:39.999Z,13.10
2024-03-02T05:24:40.188Z,13.50
2024-03-02T05:25:39.991Z,10.30
2024-03-02T05:26:39.956Z,10.90
2024-03-02T05:27:40.125Z,10.50
2024-03-02T05:28:39.916Z,11.80
2024-03-02T05:29:39.931Z,10.20
2024-03-02T05:30:39.939Z,10.60
2024-03-02T05:31:39.954Z,10.70
2024-03-02T05:32:40.577Z,11.00
2024-03-02T05:33:40.049Z,10.50
2024-03-02T05:34:40.006Z,10.80
2024-03-02T05:35:39.872Z,11.50
2024-03-02T05:36:39.910Z,9.90
2024-03-02T05:37:39.849Z,9.00
2024-03-02T05:38:39.816Z,10.40
2024-03-02T05:39:39.882Z,11.80
2024-03-02T05:40:39.848Z,10.40
2024-03-02T05:41:39.788Z,12.60
2024-03-02T05:42:39.824Z,9.80
2024-03-02T05:43:39.819Z,9.90
2024-03-02T05:44:39.742Z,11.70
2024-03-02T05:45:39.871Z,10.50
2024-03-02T05:46:41.412Z,11.90
2024-03-02T05:47:39.821Z,12.10
2024-03-02T05:48:39.776Z,10.90
2024-03-02T05:49:39.706Z,12.20
2024-03-02T05:50:39.762Z,9.60
2024-03-02T05:51:39.696Z,10.90
2024-03-02T05:52:39.670Z,9.70
2024-03-02T05:53:39.901Z,11.70
2024-03-02T05:54:39.714Z,12.40
2024-03-02T05:55:39.713Z,11.40
2024-03-02T05:56:39.711Z,12.50
2024-03-02T05:57:39.729Z,11.10
2024-03-02T05:58:39.605Z,11.20
2024-03-02T05:59:39.591Z,13.00
2024-03-02T06:00:39.686Z,11.10
2024-03-02T06:01:39.689Z,9.90
2024-03-02T06:02:40.282Z,13.20
2024-03-02T06:03:39.605Z,11.20
2024-03-02T06:04:39.614Z,10.80
2024-03-02T06:05:39.585Z,9.60
2024-03-02T06:06:39.600Z,9.70
2024-03-02T06:07:39.543Z,9.10
2024-03-02T06:08:39.493Z,11.40
2024-03-02T06:09:39.542Z,10.70
2024-03-02T06:10:39.488Z,8.30
2024-03-02T06:11:39.471Z,10.10
2024-03-02T06:12:39.737Z,10.10
2024-03-02T06:13:39.518Z,10.90
2024-03-02T06:14:39.531Z,12.70
2024-03-02T06:15:39.656Z,9.30
2024-03-02T06:16:39.563Z,11.10
2024-03-02T06:17:39.430Z,9.30
2024-03-02T06:18:39.526Z,9.70
2024-03-02T06:19:39.405Z,11.80
2024-03-02T06:20:39.381Z,9.50
2024-03-02T06:21:39.485Z,11.30
2024-03-02T06:22:39.439Z,9.90
2024-03-02T06:23:39.420Z,10.60
2024-03-02T06:24:39.381Z,11.70
2024-03-02T06:25:39.336Z,10.90
2024-03-02T06:26:39.327Z,10.40
2024-03-02T06:27:39.327Z,10.70
2024-03-02T06:28:39.325Z,11.00
2024-03-02T06:29:39.263Z,10.90
2024-03-02T06:30:39.640Z,9.40
2024-03-02T06:31:39.253Z,9.90
2024-03-02T06:32:39.309Z,9.90
2024-03-02T06:33:39.369Z,11.30
2024-03-02T06:34:39.484Z,9.90
2024-03-02T06:35:39.243Z,12.30
2024-03-02T06:36:39.201Z,10.50
2024-03-02T06:37:39.198Z,10.10
2024-03-02T06:38:42.321Z,10.70
2024-03-02T06:39:39.212Z,12.50
2024-03-02T06:40:39.195Z,12.10
2024-03-02T06:41:39.146Z,13.00
2024-03-02T06:42:39.150Z,11.90
2024-03-02T06:43:39.130Z,11.90
2024-03-02T06:44:39.098Z,10.80
2024-03-02T06:45:39.141Z,11.60
2024-03-02T06:46:39.114Z,12.90
2024-03-02T06:47:39.100Z,13.10
2024-03-02T06:48:39.072Z,13.80
2024-03-02T06:49:39.063Z,13.90
2024-03-02T06:50:39.102Z,12.60
2024-03-02T06:51:39.045Z,14.50
2024-03-02T06:52:39.252Z,11.80
2024-03-02T06:53:39.057Z,12.00
2024-03-02T06:54:39.024Z,11.80
2024-03-02T06:55:38.982Z,13.80
2024-03-02T06:56:39.073Z,12.10
2024-03-02T06:57:39.070Z,10.80
2024-03-02T06:58:38.991Z,11.50
2024-03-02T06:59:38.958Z,10.20
2024-03-02T07:00:38.955Z,12.60
2024-03-02T07:01:38.970Z,12.00
2024-03-02T07:02:38.925Z,11.40
2024-03-02T07:03:38.923Z,12.10
2024-03-02T07:04:38.901Z,11.10
2024-03-02T07:05:38.850Z,12.40
2024-03-02T07:06:38.979Z,14.10
2024-03-02T07:07:38.842Z,13.70
2024-03-02T07:08:38.853Z,11.20
2024-03-02T07:09:38.873Z,10.60
2024-03-02T07:10:38.795Z,10.70
2024-03-02T07:11:38.796Z,10.90
2024-03-02T07:12:38.856Z,11.10
2024-03-02T07:13:38.790Z,10.50
2024-03-02T07:14:39.859Z,11.60
2024-03-02T07:15:38.827Z,12.40
2024-03-02T07:16:38.804Z,9.80
2024-03-02T07:17:38.745Z,11.30
2024-03-02T07:18:38.820Z,11.30
2024-03-02T07:19:38.764Z,10.00
2024-03-02T07:20:38.713Z,11.00
2024-03-02T07:21:38.756Z,12.90
2024-03-02T07:22:41.065Z,12.60
2024-03-02T07:23:38.716Z,13.80
2024-03-02T07:24:38.673Z,10.10
2024-03-02T07:27:38.752Z,12.40
2024-03-02T07:28:38.699Z,10.70
2024-03-02T07:29:38.634Z,15.10
2024-03-02T07:30:38.635Z,10.10
2024-03-02T07:31:38.690Z,11.70
2024-03-02T07:32:39.648Z,11.30
2024-03-02T07:33:38.818Z,10.90
2024-03-02T07:34:38.548Z,15.10
2024-03-02T07:35:38.543Z,10.40
2024-03-02T07:36:38.650Z,12.60
2024-03-02T07:37:38.609Z,12.90
2024-03-02T07:38:38.526Z,11.10
2024-03-02T07:39:38.538Z,11.60
2024-03-02T07:40:38.507Z,12.00
2024-03-02T07:41:38.482Z,11.90
2024-03-02T07:42:38.489Z,11.40
2024-03-02T07:43:38.463Z,12.30
2024-03-02T07:44:39.742Z,11.40
2024-03-02T07:45:38.430Z,10.60
2024-03-02T07:46:38.482Z,12.50
2024-03-02T07:47:38.447Z,12.10
2024-03-02T07:48:38.446Z,10.70
2024-03-02T07:49:38.375Z,11.50
2024-03-02T07:50:38.369Z,12.20
2024-03-02T07:51:38.405Z,13.90
2024-03-02T07:52:38.348Z,10.40
2024-03-02T07:53:38.321Z,11.10
2024-03-02T07:54:38.381Z,10.70
2024-03-02T07:55:38.313Z,10.30
2024-03-02T07:56:40.625Z,11.80
2024-03-02T07:57:38.325Z,12.90
2024-03-02T07:58:38.303Z,13.50
2024-03-02T07:59:38.289Z,13.60
2024-03-02T08:00:38.424Z,10.90
2024-03-02T08:01:38.355Z,13.40
2024-03-02T08:02:38.235Z,11.50
2024-03-02T08:03:38.218Z,13.60
2024-03-02T08:04:38.240Z,13.00
2024-03-02T08:05:38.270Z,12.50
2024-03-02T08:06:38.232Z,14.70
2024-03-02T08:07:38.178Z,13.20
2024-03-02T08:08:38.195Z,13.30
2024-03-02T08:09:38.205Z,14.20
2024-03-02T08:10:38.143Z,13.80
2024-03-02T08:11:38.316Z,12.20
2024-03-02T08:12:38.142Z,13.80
2024-03-02T08:13:38.128Z,12.60
2024-03-02T08:14:38.154Z,12.70
2024-03-02T08:15:38.137Z,13.60
2024-03-02T08:16:38.111Z,13.90
2024-03-02T08:17:38.514Z,13.90
2024-03-02T08:18:38.123Z,17.50
2024-03-02T08:19:38.070Z,15.30
2024-03-02T08:20:38.036Z,14.60
2024-03-02T08:21:38.158Z,15.60
2024-03-02T08:22:38.065Z,13.40
2024-03-02T08:23:38.036Z,15.50
2024-03-02T08:24:38.052Z,13.50
2024-03-02T08:25:38.057Z,13.70
2024-03-02T08:26:38.053Z,13.50
2024-03-02T08:27:38.286Z,16.30
2024-03-02T08:28:38.021Z,13.50
2024-03-02T08:29:37.925Z,14.20
2024-03-02T08:30:37.991Z,12.30
2024-03-02T08:31:40.556Z,11.90
2024-03-02T08:32:37.989Z,13.90
2024-03-02T08:33:38.870Z,13.40
2024-03-02T08:34:37.896Z,12.20
2024-03-02T08:35:37.863Z,13.90
2024-03-02T08:36:40.053Z,13.10
2024-03-02T08:37:38.014Z,13.50
2024-03-02T08:38:37.836Z,13.10
2024-03-02T08:39:37.864Z,11.90
2024-03-02T08:40:37.884Z,15.60
2024-03-02T08:41:37.826Z,14.20
2024-03-02T08:42:37.858Z,12.60
2024-03-02T08:43:37.777Z,12.00
2024-03-02T08:44:37.770Z,11.00
2024-03-02T08:45:37.812Z,13.00
2024-03-02T08:46:37.798Z,12.20
2024-03-02T08:47:37.785Z,12.40
2024-03-02T08:48:37.868Z,14.40
2024-03-02T08:49:37.742Z,14.20
2024-03-02T08:50:37.716Z,13.20
2024-03-02T08:51:37.746Z,10.80
2024-03-02T08:52:37.697Z,14.20
2024-03-02T08:53:37.658Z,13.20
2024-03-02T08:54:37.745Z,13.40
2024-03-02T08:55:37.677Z,12.50
2024-03-02T08:56:37.661Z,13.10
2024-03-02T08:57:37.707Z,11.50
2024-03-02T08:58:37.610Z,15.40
2024-03-02T08:59:37.643Z,12.30
2024-03-02T09:00:37.674Z,13.70
2024-03-02T09:01:37.617Z,14.30
2024-03-02T09:02:37.569Z,11.00
2024-03-02T09:03:37.573Z,12.90
2024-03-02T09:04:37.575Z,13.30
2024-03-02T09:05:37.647Z,11.80
2024-03-02T09:06:37.601Z,13.30
2024-03-02T09:07:37.514Z,12.80
2024-03-02T09:08:37.513Z,12.10
2024-03-02T09:09:37.506Z,12.30
2024-03-02T09:10:37.876Z,14.60
2024-03-02T09:11:37.489Z,12.10
2024-03-02T09:12:37.491Z,12.20
2024-03-02T09:13:37.476Z,12.60
2024-03-02T09:14:37.452Z,12.90
2024-03-02T09:15:37.674Z,14.80
2024-03-02T09:16:37.416Z,12.30
2024-03-02T09:17:37.443Z,12.60
2024-03-02T09:18:37.431Z,14.70
2024-03-02T09:19:37.388Z,11.40
2024-03-02T09:20:37.544Z,11.40
2024-03-02T09:21:37.516Z,10.80
2024-03-02T09:22:37.373Z,12.40
2024-03-02T09:23:37.332Z,11.90
2024-03-02T09:24:37.430Z,11.00
2024-03-02T09:25:37.334Z,13.90
2024-03-02T09:26:37.297Z,11.70
2024-03-02T09:27:37.296Z,13.30
2024-03-02T09:28:37.324Z,14.00
2024-03-02T09:29:37.291Z,10.70
2024-03-02T09:30:37.337Z,13.00
2024-03-02T09:31:37.235Z,12.80
2024-03-02T09:32:37.278Z,15.00
2024-03-02T09:33:37.343Z,13.40
2024-03-02T09:34:37.232Z,13.40
2024-03-02T09:35:37.202Z,12.80
2024-03-02T09:36:37.341Z,12.70
2024-03-02T09:37:37.202Z,12.40
2024-03-02T09:38:37.240Z,12.30
2024-03-02T09:39:37.254Z,10.00
2024-03-02T09:40:37.189Z,9.70
2024-03-02T09:41:37.217Z,10.10
2024-03-02T09:42:37.225Z,9.90
2024-03-02T09:43:37.170Z,9.00
2024-03-02T09:44:37.155Z,10.70
2024-03-02T09:45:39.784Z,10.30
2024-03-02T09:46:37.081Z,10.20
2024-03-02T09:47:37.139Z,10.90
2024-03-02T09:48:37.116Z,9.00
2024-03-02T09:49:38.424Z,11.40
2024-03-02T09:50:37.041Z,11.50
2024-03-02T09:51:37.038Z,11.90
2024-03-02T09:52:37.021Z,10.20
2024-03-02T09:53:37.069Z,9.40
2024-03-02T09:54:37.056Z,10.80
2024-03-02T09:55:37.004Z,9.00
2024-03-02T09:56:39.599Z,9.90
2024-03-02T09:57:38.792Z,10.90
2024-03-02T09:58:36.957Z,11.10
2024-03-02T09:59:36.937Z,10.30
2024-03-02T10:00:36.933Z,11.70
2024-03-02T10:01:37.037Z,10.90
2024-03-02T10:02:36.921Z,10.40
2024-03-02T10:03:36.921Z,10.20
2024-03-02T10:04:37.129Z,11.50
2024-03-02T10:05:36.950Z,8.90
2024-03-02T10:06:36.859Z,11.70
2024-03-02T10:07:38.775Z,11.90
2024-03-02T10:08:36.985Z,11.40
2024-03-02T10:09:36.840Z,11.40
2024-03-02T10:10:38.561Z,10.20
2024-03-02T10:11:36.868Z,10.90
2024-03-02T10:12:36.872Z,11.80
2024-03-02T10:13:38.645Z,13.20
2024-03-02T10:14:36.761Z,10.40
2024-03-02T10:15:58.741Z,9.60
2024-03-02T10:16:38.465Z,10.80
2024-03-02T10:17:37.499Z,10.40
2024-03-02T10:18:38.750Z,10.20
2024-03-02T10:19:36.826Z,10.50
2024-03-02T10:20:47.426Z,8.50
2024-03-02T10:21:39.396Z,10.70
2024-03-02T10:22:39.513Z,9.80
2024-03-02T10:23:37.026Z,10.10
2024-03-02T10:24:36.653Z,9.80
2024-03-02T10:25:43.857Z,9.50
2024-03-02T10:26:39.213Z,10.70
2024-03-02T10:27:36.690Z,9.20
2024-03-02T10:28:38.480Z,9.90
2024-03-02T10:29:43.127Z,9.00
2024-03-02T10:30:37.456Z,10.80
2024-03-02T10:31:36.608Z,10.60
2024-03-02T10:32:36.590Z,8.50
2024-03-02T10:33:36.635Z,13.20
2024-03-02T10:34:36.544Z,11.90
2024-03-02T10:35:36.617Z,9.30
2024-03-02T10:36:36.564Z,7.70
2024-03-02T10:37:38.180Z,7.70
2024-03-02T10:38:36.494Z,9.30
2024-03-02T10:39:37.156Z,9.90
2024-03-02T10:40:36.483Z,10.20
2024-03-02T10:41:36.493Z,9.10
2024-03-02T10:42:36.555Z,10.70
2024-03-02T10:43:36.536Z,9.30
2024-03-02T10:44:38.723Z,10.50
2024-03-02T10:45:36.545Z,10.90
2024-03-02T10:46:36.449Z,13.10
2024-03-02T10:47:36.466Z,10.30
2024-03-02T10:48:38.279Z,11.10
2024-03-02T10:49:38.119Z,10.60
2024-03-02T10:50:36.398Z,10.40
2024-03-02T10:51:37.197Z,14.50
2024-03-02T10:52:36.354Z,13.70
2024-03-02T10:53:39.282Z,12.90
2024-03-02T10:54:36.450Z,12.50
2024-03-02T10:55:36.438Z,10.00
2024-03-02T10:56:39.328Z,10.80
2024-03-02T10:57:38.264Z,15.30
2024-03-02T10:58:36.476Z,13.20
2024-03-02T10:59:37.461Z,16.80
2024-03-02T11:00:38.255Z,13.80
2024-03-02T11:01:36.380Z,14.40
2024-03-02T11:02:36.246Z,13.70
2024-03-02T11:03:39.661Z,11.80
2024-03-02T11:04:39.033Z,12.60
2024-03-02T11:05:36.296Z,14.20
2024-03-02T11:06:36.332Z,12.20
2024-03-02T11:07:36.860Z,11.60
2024-03-02T11:08:37.424Z,10.90
2024-03-02T11:09:36.289Z,13.40
2024-03-02T11:10:36.158Z,14.20
2024-03-02T11:11:39.908Z,13.20
2024-03-02T11:12:37.381Z,11.60
2024-03-02T11:13:38.527Z,11.50
2024-03-02T11:14:40.715Z,12.70
2024-03-02T11:15:38.033Z,12.60
2024-03-02T11:16:44.419Z,14.80
2024-03-02T11:17:36.669Z,11.20
2024-03-02T11:18:37.881Z,12.20
2024-03-02T11:19:37.936Z,14.00
2024-03-02T11:20:43.265Z,15.40
2024-03-02T11:21:36.071Z,18.10
2024-03-02T11:22:38.275Z,17.20
2024-03-02T11:23:40.696Z,17.70
2024-03-02T11:24:38.960Z,17.10
2024-03-02T11:25:37.649Z,13.30
2024-03-02T11:26:43.117Z,13.50
2024-03-02T11:27:38.543Z,14.70
2024-03-02T11:28:37.149Z,13.90
2024-03-02T11:29:36.021Z,13.50
2024-03-02T11:30:38.305Z,15.00
2024-03-02T11:32:05.630Z,17.20
2024-03-02T11:32:50.636Z,15.70
2024-03-02T11:33:40.171Z,16.50
2024-03-02T11:34:43.586Z,16.90
2024-03-02T11:35:36.115Z,15.70
2024-03-02T11:36:35.974Z,15.40
2024-03-02T11:37:36.249Z,14.60
2024-03-02T11:38:41.282Z,14.60
2024-03-02T11:39:36.235Z,15.80
2024-03-02T11:40:38.164Z,15.60
2024-03-02T11:41:36.266Z,15.50
2024-03-02T11:42:37.648Z,14.10
2024-03-02T11:43:35.820Z,12.50
2024-03-02T11:44:38.483Z,14.60
2024-03-02T11:45:40.100Z,15.50
2024-03-02T11:46:36.993Z,12.80
2024-03-02T11:47:38.910Z,16.10
2024-03-02T11:48:35.873Z,16.80
2024-03-02T11:49:35.825Z,16.50
2024-03-02T11:50:36.642Z,15.90
2024-03-02T11:51:38.319Z,16.50
2024-03-02T11:52:36.782Z,15.20
2024-03-02T11:53:37.719Z,13.60
2024-03-02T11:54:36.100Z,14.70
2024-03-02T11:55:35.709Z,18.00
2024-03-02T11:56:35.716Z,17.70
2024-03-02T11:57:40.987Z,18.50
2024-03-02T11:58:53.862Z,19.40
2024-03-02T11:59:38.869Z,19.70
2024-03-02T12:00:38.434Z,16.10
2024-03-02T12:01:37.421Z,17.70
2024-03-02T12:02:43.019Z,16.20
2024-03-02T12:03:41.374Z,15.10
2024-03-02T12:04:35.565Z,15.50
2024-03-02T12:05:42.091Z,18.50
2024-03-02T12:06:39.916Z,22.70
2024-03-02T12:07:40.025Z,15.50
2024-03-02T12:08:39.632Z,17.80
2024-03-02T12:09:41.165Z,18.10
2024-03-02T12:10:36.286Z,16.70
2024-03-02T12:11:36.050Z,16.20
2024-03-02T12:12:40.274Z,18.90
2024-03-02T12:13:36.851Z,19.00
2024-03-02T12:14:42.683Z,20.40
2024-03-02T12:15:35.682Z,13.70
2024-03-02T12:16:38.390Z,15.70
2024-03-02T12:17:53.593Z,14.40
2024-03-02T12:19:53.698Z,15.70
2024-03-02T12:20:17.563Z,16.20
2024-03-02T12:21:00.467Z,14.60
2024-03-02T12:22:08.101Z,13.70
2024-03-02T12:29:19.358Z,15.90
2024-03-02T12:29:25.214Z,18.40
2024-03-02T12:30:24.873Z,20.90
2024-03-02T12:31:27.693Z,15.40
2024-03-02T12:32:34.972Z,14.90
2024-03-02T12:33:26.716Z,18.90
2024-03-02T12:34:31.198Z,18.50
2024-03-02T12:36:42.120Z,15.30
2024-03-02T12:36:47.612Z,18.60
2024-03-02T12:37:50.606Z,15.30
2024-03-02T12:38:47.628Z,18.50
2024-03-02T12:39:51.008Z,20.70
2024-03-02T12:40:47.502Z,19.70
2024-03-02T12:41:47.508Z,17.60
2024-03-02T12:42:47.538Z,19.70
2024-03-02T12:43:47.498Z,22.80
2024-03-02T12:44:47.477Z,15.10
2024-03-02T12:45:47.512Z,16.60
2024-03-02T12:46:47.450Z,18.30
2024-03-02T12:47:49.344Z,16.10
2024-03-02T12:48:54.623Z,16.60
2024-03-02T12:49:56.641Z,19.40
2024-03-02T12:52:06.863Z,15.00
2024-03-02T12:53:10.860Z,14.00
2024-03-02T12:54:06.671Z,17.50
2024-03-02T12:55:10.169Z,17.00
2024-03-02T12:56:06.578Z,18.70
2024-03-02T12:57:09.318Z,15.60
2024-03-02T12:58:08.634Z,15.50
2024-03-02T12:59:06.573Z,14.10
2024-03-02T13:00:06.540Z,18.90
2024-03-02T13:01:06.579Z,15.00
2024-03-02T13:02:06.566Z,18.50
2024-03-02T13:03:06.549Z,14.90
2024-03-02T13:04:06.533Z,14.80
2024-03-02T13:05:06.519Z,14.50
2024-03-02T13:06:06.475Z,18.30
2024-03-02T13:07:06.527Z,16.60
2024-03-02T13:08:07.972Z,16.60
2024-03-02T13:09:06.556Z,16.70
2024-03-02T13:10:06.467Z,18.40
2024-03-02T13:11:06.448Z,17.60
2024-03-02T13:12:06.432Z,18.20